sensor_id;sensor_type;location;lat;lon;timestamp;temperature;humidity
31527;DHT22;18136;42.236;-73.040;2022-08-01T00:01:07;20.20;99.90
31527;DHT22;18136;42.236;-73.040;2022-08-01T00:03:33;20.20;99.90
31527;DHT22;18136;42.236;-73.040;2022-08-01T00:05:59;20.10;99.90
31527;DHT22;18136;42.236;-73.040;2022-08-01T00:08:28;20.10;99.90
31527;DHT22;18136;42.236;-73.040;2022-08-01T00:10:54;20.10;99.90
31527;DHT22;18136;42.236;-73.040;2022-08-01T00:13:20;20.00;99.90
31527;DHT22;18136;42.236;-73.040;2022-08-01T00:15:46;20.00;99.90
31527;DHT22;18136;42.236;-73.040;2022-08-01T00:18:12;20.00;99.90
31527;DHT22;18136;42.236;-73.040;2022-08-01T00:20:38;19.90;99.90
31527;DHT22;18136;42.236;-73.040;2022-08-01T00:23:05;19.90;99.90
31527;DHT22;18136;42.236;-73.040;2022-08-01T00:25:31;19.80;99.90
31527;DHT22;18136;42.236;-73.040;2022-08-01T00:27:58;19.80;99.90
31527;DHT22;18136;42.236;-73.040;2022-08-01T00:30:24;19.70;99.90
31527;DHT22;18136;42.236;-73.040;2022-08-01T00:32:50;19.70;99.90
31527;DHT22;18136;42.236;-73.040;2022-08-01T00:35:16;19.70;99.90
31527;DHT22;18136;42.236;-73.040;2022-08-01T00:37:45;19.70;99.90
31527;DHT22;18136;42.236;-73.040;2022-08-01T00:40:11;19.60;99.90
31527;DHT22;18136;42.236;-73.040;2022-08-01T00:42:37;19.60;99.90
31527;DHT22;18136;42.236;-73.040;2022-08-01T00:45:04;19.50;99.90
31527;DHT22;18136;42.236;-73.040;2022-08-01T00:47:30;19.50;99.90
31527;DHT22;18136;42.236;-73.040;2022-08-01T00:50:00;19.50;99.90
31527;DHT22;18136;42.236;-73.040;2022-08-01T00:52:28;19.50;99.90
31527;DHT22;18136;42.236;-73.040;2022-08-01T00:54:55;19.50;99.90
31527;DHT22;18136;42.236;-73.040;2022-08-01T00:57:21;19.40;99.90
31527;DHT22;18136;42.236;-73.040;2022-08-01T00:59:48;19.40;99.90
31527;DHT22;18136;42.236;-73.040;2022-08-01T01:02:16;19.40;99.90
31527;DHT22;18136;42.236;-73.040;2022-08-01T01:04:43;19.40;99.90
31527;DHT22;18136;42.236;-73.040;2022-08-01T01:07:17;19.40;99.90
31527;DHT22;18136;42.236;-73.040;2022-08-01T01:09:52;19.30;99.90
31527;DHT22;18136;42.236;-73.040;2022-08-01T01:13:33;19.30;99.90
31527;DHT22;18136;42.236;-73.040;2022-08-01T01:15:50;19.30;99.90
31527;DHT22;18136;42.236;-73.040;2022-08-01T01:18:37;19.20;99.90
31527;DHT22;18136;42.236;-73.040;2022-08-01T01:27:21;19.10;99.90
31527;DHT22;18136;42.236;-73.040;2022-08-01T01:29:51;19.10;99.90
31527;DHT22;18136;42.236;-73.040;2022-08-01T01:32:45;19.10;99.90
31527;DHT22;18136;42.236;-73.040;2022-08-01T01:35:26;19.10;99.90
31527;DHT22;18136;42.236;-73.040;2022-08-01T01:38:12;19.00;99.90
31527;DHT22;18136;42.236;-73.040;2022-08-01T01:40:42;19.00;99.90
31527;DHT22;18136;42.236;-73.040;2022-08-01T01:43:11;19.00;99.90
31527;DHT22;18136;42.236;-73.040;2022-08-01T01:45:40;19.00;99.90
31527;DHT22;18136;42.236;-73.040;2022-08-01T01:48:09;18.90;99.90
31527;DHT22;18136;42.236;-73.040;2022-08-01T01:50:37;18.90;99.90
31527;DHT22;18136;42.236;-73.040;2022-08-01T01:53:04;18.90;99.90
31527;DHT22;18136;42.236;-73.040;2022-08-01T01:55:32;18.90;99.90
31527;DHT22;18136;42.236;-73.040;2022-08-01T01:58:01;18.90;99.90
31527;DHT22;18136;42.236;-73.040;2022-08-01T02:00:30;18.90;99.90
31527;DHT22;18136;42.236;-73.040;2022-08-01T02:02:57;18.80;99.90
31527;DHT22;18136;42.236;-73.040;2022-08-01T02:05:26;18.80;99.90
31527;DHT22;18136;42.236;-73.040;2022-08-01T02:07:54;18.80;99.90
31527;DHT22;18136;42.236;-73.040;2022-08-01T02:10:21;18.70;99.90
31527;DHT22;18136;42.236;-73.040;2022-08-01T02:12:49;18.70;99.90
31527;DHT22;18136;42.236;-73.040;2022-08-01T02:15:16;18.70;99.90
31527;DHT22;18136;42.236;-73.040;2022-08-01T02:17:47;18.70;99.90
31527;DHT22;18136;42.236;-73.040;2022-08-01T02:20:14;18.70;99.90
31527;DHT22;18136;42.236;-73.040;2022-08-01T02:22:50;18.70;99.90
31527;DHT22;18136;42.236;-73.040;2022-08-01T02:30:18;18.70;99.90
31527;DHT22;18136;42.236;-73.040;2022-08-01T02:32:48;18.70;99.90
31527;DHT22;18136;42.236;-73.040;2022-08-01T02:35:31;18.70;99.90
31527;DHT22;18136;42.236;-73.040;2022-08-01T02:38:00;18.70;99.90
31527;DHT22;18136;42.236;-73.040;2022-08-01T02:40:29;18.70;99.90
31527;DHT22;18136;42.236;-73.040;2022-08-01T02:43:00;18.60;99.90
31527;DHT22;18136;42.236;-73.040;2022-08-01T02:45:29;18.60;99.90
31527;DHT22;18136;42.236;-73.040;2022-08-01T02:48:00;18.60;99.90
31527;DHT22;18136;42.236;-73.040;2022-08-01T02:50:28;18.60;99.90
31527;DHT22;18136;42.236;-73.040;2022-08-01T02:52:55;18.60;99.90
31527;DHT22;18136;42.236;-73.040;2022-08-01T02:55:23;18.60;99.90
31527;DHT22;18136;42.236;-73.040;2022-08-01T02:57:51;18.60;99.90
31527;DHT22;18136;42.236;-73.040;2022-08-01T03:00:19;18.50;99.90
31527;DHT22;18136;42.236;-73.040;2022-08-01T03:02:46;18.50;99.90
31527;DHT22;18136;42.236;-73.040;2022-08-01T03:05:14;18.50;99.90
31527;DHT22;18136;42.236;-73.040;2022-08-01T03:07:41;18.50;99.90
31527;DHT22;18136;42.236;-73.040;2022-08-01T03:10:08;18.50;99.90
31527;DHT22;18136;42.236;-73.040;2022-08-01T03:12:36;18.50;99.90
31527;DHT22;18136;42.236;-73.040;2022-08-01T03:15:05;18.50;99.90
31527;DHT22;18136;42.236;-73.040;2022-08-01T03:17:32;18.50;99.90
31527;DHT22;18136;42.236;-73.040;2022-08-01T03:20:02;18.50;99.90
31527;DHT22;18136;42.236;-73.040;2022-08-01T03:22:30;18.50;99.90
31527;DHT22;18136;42.236;-73.040;2022-08-01T03:24:59;18.50;99.90
31527;DHT22;18136;42.236;-73.040;2022-08-01T03:27:25;18.50;99.90
31527;DHT22;18136;42.236;-73.040;2022-08-01T03:29:54;18.50;99.90
31527;DHT22;18136;42.236;-73.040;2022-08-01T03:32:21;18.50;99.90
31527;DHT22;18136;42.236;-73.040;2022-08-01T03:34:48;18.40;99.90
31527;DHT22;18136;42.236;-73.040;2022-08-01T03:37:29;18.40;99.90
31527;DHT22;18136;42.236;-73.040;2022-08-01T03:40:02;18.40;99.90
31527;DHT22;18136;42.236;-73.040;2022-08-01T03:42:37;18.40;99.90
31527;DHT22;18136;42.236;-73.040;2022-08-01T03:45:07;18.40;99.90
31527;DHT22;18136;42.236;-73.040;2022-08-01T03:47:42;18.40;99.90
31527;DHT22;18136;42.236;-73.040;2022-08-01T03:50:11;18.40;99.90
31527;DHT22;18136;42.236;-73.040;2022-08-01T03:52:39;18.40;99.90
31527;DHT22;18136;42.236;-73.040;2022-08-01T03:55:08;18.30;99.90
31527;DHT22;18136;42.236;-73.040;2022-08-01T03:57:34;18.30;99.90
31527;DHT22;18136;42.236;-73.040;2022-08-01T04:00:03;18.30;99.90
31527;DHT22;18136;42.236;-73.040;2022-08-01T04:02:32;18.30;99.90
31527;DHT22;18136;42.236;-73.040;2022-08-01T04:04:59;18.30;99.90
31527;DHT22;18136;42.236;-73.040;2022-08-01T04:07:31;18.20;99.90
31527;DHT22;18136;42.236;-73.040;2022-08-01T04:09:57;18.20;99.90
31527;DHT22;18136;42.236;-73.040;2022-08-01T04:12:24;18.20;99.90
31527;DHT22;18136;42.236;-73.040;2022-08-01T04:14:50;18.20;99.90
31527;DHT22;18136;42.236;-73.040;2022-08-01T04:17:16;18.20;99.90
31527;DHT22;18136;42.236;-73.040;2022-08-01T04:19:43;18.10;99.90
31527;DHT22;18136;42.236;-73.040;2022-08-01T04:22:11;18.10;99.90
31527;DHT22;18136;42.236;-73.040;2022-08-01T04:25:04;18.10;99.90
31527;DHT22;18136;42.236;-73.040;2022-08-01T04:27:45;18.00;99.90
31527;DHT22;18136;42.236;-73.040;2022-08-01T04:30:13;18.00;99.90
31527;DHT22;18136;42.236;-73.040;2022-08-01T04:32:43;18.00;99.90
31527;DHT22;18136;42.236;-73.040;2022-08-01T04:35:13;17.90;99.90
31527;DHT22;18136;42.236;-73.040;2022-08-01T04:37:44;17.90;99.90
31527;DHT22;18136;42.236;-73.040;2022-08-01T04:40:11;17.90;99.90
31527;DHT22;18136;42.236;-73.040;2022-08-01T04:42:38;17.80;99.90
31527;DHT22;18136;42.236;-73.040;2022-08-01T04:45:04;17.90;99.90
31527;DHT22;18136;42.236;-73.040;2022-08-01T04:47:31;17.80;99.90
31527;DHT22;18136;42.236;-73.040;2022-08-01T04:49:58;17.80;99.90
31527;DHT22;18136;42.236;-73.040;2022-08-01T04:52:34;17.80;99.90
31527;DHT22;18136;42.236;-73.040;2022-08-01T04:55:00;17.70;99.90
31527;DHT22;18136;42.236;-73.040;2022-08-01T04:57:26;17.70;99.90
31527;DHT22;18136;42.236;-73.040;2022-08-01T04:59:53;17.70;99.90
31527;DHT22;18136;42.236;-73.040;2022-08-01T05:02:23;17.70;99.90
31527;DHT22;18136;42.236;-73.040;2022-08-01T05:04:49;17.60;99.90
31527;DHT22;18136;42.236;-73.040;2022-08-01T05:07:15;17.60;99.90
31527;DHT22;18136;42.236;-73.040;2022-08-01T05:09:42;17.60;99.90
31527;DHT22;18136;42.236;-73.040;2022-08-01T05:12:08;17.60;99.90
31527;DHT22;18136;42.236;-73.040;2022-08-01T05:14:35;17.50;99.90
31527;DHT22;18136;42.236;-73.040;2022-08-01T05:17:05;17.50;99.90
31527;DHT22;18136;42.236;-73.040;2022-08-01T05:19:35;17.50;99.90
31527;DHT22;18136;42.236;-73.040;2022-08-01T05:22:04;17.40;99.90
31527;DHT22;18136;42.236;-73.040;2022-08-01T05:24:31;17.40;99.90
31527;DHT22;18136;42.236;-73.040;2022-08-01T05:26:58;17.40;99.90
31527;DHT22;18136;42.236;-73.040;2022-08-01T05:29:31;17.40;99.90
31527;DHT22;18136;42.236;-73.040;2022-08-01T05:31:57;17.40;99.90
31527;DHT22;18136;42.236;-73.040;2022-08-01T05:34:25;17.40;99.90
31527;DHT22;18136;42.236;-73.040;2022-08-01T05:36:51;17.40;99.90
31527;DHT22;18136;42.236;-73.040;2022-08-01T05:39:18;17.40;99.90
31527;DHT22;18136;42.236;-73.040;2022-08-01T05:41:44;17.40;99.90
31527;DHT22;18136;42.236;-73.040;2022-08-01T05:44:10;17.40;99.90
31527;DHT22;18136;42.236;-73.040;2022-08-01T05:46:36;17.40;99.90
31527;DHT22;18136;42.236;-73.040;2022-08-01T05:49:04;17.40;99.90
31527;DHT22;18136;42.236;-73.040;2022-08-01T05:51:30;17.40;99.90
31527;DHT22;18136;42.236;-73.040;2022-08-01T05:53:57;17.40;99.90
31527;DHT22;18136;42.236;-73.040;2022-08-01T05:56:23;17.40;99.90
31527;DHT22;18136;42.236;-73.040;2022-08-01T05:58:50;17.40;99.90
31527;DHT22;18136;42.236;-73.040;2022-08-01T06:01:17;17.40;99.90
31527;DHT22;18136;42.236;-73.040;2022-08-01T06:03:44;17.40;99.90
31527;DHT22;18136;42.236;-73.040;2022-08-01T06:06:10;17.40;99.90
31527;DHT22;18136;42.236;-73.040;2022-08-01T06:08:36;17.40;99.90
31527;DHT22;18136;42.236;-73.040;2022-08-01T06:11:02;17.40;99.90
31527;DHT22;18136;42.236;-73.040;2022-08-01T06:13:28;17.40;99.90
31527;DHT22;18136;42.236;-73.040;2022-08-01T06:15:54;17.40;99.90
31527;DHT22;18136;42.236;-73.040;2022-08-01T06:18:20;17.40;99.90
31527;DHT22;18136;42.236;-73.040;2022-08-01T06:20:46;17.40;99.90
31527;DHT22;18136;42.236;-73.040;2022-08-01T06:23:13;17.40;99.90
31527;DHT22;18136;42.236;-73.040;2022-08-01T06:25:42;17.40;99.90
31527;DHT22;18136;42.236;-73.040;2022-08-01T06:28:09;17.40;99.90
31527;DHT22;18136;42.236;-73.040;2022-08-01T06:30:35;17.40;99.90
31527;DHT22;18136;42.236;-73.040;2022-08-01T06:33:01;17.40;99.90
31527;DHT22;18136;42.236;-73.040;2022-08-01T06:35:28;17.40;99.90
31527;DHT22;18136;42.236;-73.040;2022-08-01T06:37:56;17.40;99.90
31527;DHT22;18136;42.236;-73.040;2022-08-01T06:40:22;17.40;99.90
31527;DHT22;18136;42.236;-73.040;2022-08-01T06:42:49;17.40;99.90
31527;DHT22;18136;42.236;-73.040;2022-08-01T06:45:16;17.40;99.90
31527;DHT22;18136;42.236;-73.040;2022-08-01T06:47:43;17.30;99.90
31527;DHT22;18136;42.236;-73.040;2022-08-01T06:50:11;17.40;99.90
31527;DHT22;18136;42.236;-73.040;2022-08-01T06:52:37;17.40;99.90
31527;DHT22;18136;42.236;-73.040;2022-08-01T06:55:04;17.40;99.90
31527;DHT22;18136;42.236;-73.040;2022-08-01T06:57:30;17.40;99.90
31527;DHT22;18136;42.236;-73.040;2022-08-01T06:59:56;17.40;99.90
31527;DHT22;18136;42.236;-73.040;2022-08-01T07:02:23;17.40;99.90
31527;DHT22;18136;42.236;-73.040;2022-08-01T07:04:49;17.40;99.90
31527;DHT22;18136;42.236;-73.040;2022-08-01T07:07:15;17.30;99.90
31527;DHT22;18136;42.236;-73.040;2022-08-01T07:09:41;17.40;99.90
31527;DHT22;18136;42.236;-73.040;2022-08-01T07:12:08;17.30;99.90
31527;DHT22;18136;42.236;-73.040;2022-08-01T07:14:34;17.40;99.90
31527;DHT22;18136;42.236;-73.040;2022-08-01T07:17:00;17.40;99.90
31527;DHT22;18136;42.236;-73.040;2022-08-01T07:19:26;17.40;99.90
31527;DHT22;18136;42.236;-73.040;2022-08-01T07:21:53;17.40;99.90
31527;DHT22;18136;42.236;-73.040;2022-08-01T07:24:19;17.40;99.90
31527;DHT22;18136;42.236;-73.040;2022-08-01T07:26:48;17.40;99.90
31527;DHT22;18136;42.236;-73.040;2022-08-01T07:29:14;17.40;99.90
31527;DHT22;18136;42.236;-73.040;2022-08-01T07:31:40;17.40;99.90
31527;DHT22;18136;42.236;-73.040;2022-08-01T07:34:07;17.40;99.90
31527;DHT22;18136;42.236;-73.040;2022-08-01T07:36:33;17.40;99.90
31527;DHT22;18136;42.236;-73.040;2022-08-01T07:38:59;17.40;99.90
31527;DHT22;18136;42.236;-73.040;2022-08-01T07:41:34;17.40;99.90
31527;DHT22;18136;42.236;-73.040;2022-08-01T07:44:00;17.40;99.90
31527;DHT22;18136;42.236;-73.040;2022-08-01T07:46:26;17.30;99.90
31527;DHT22;18136;42.236;-73.040;2022-08-01T07:48:52;17.30;99.90
31527;DHT22;18136;42.236;-73.040;2022-08-01T07:51:19;17.30;99.90
31527;DHT22;18136;42.236;-73.040;2022-08-01T07:53:45;17.30;99.90
31527;DHT22;18136;42.236;-73.040;2022-08-01T07:56:11;17.30;99.90
31527;DHT22;18136;42.236;-73.040;2022-08-01T07:58:37;17.40;99.90
31527;DHT22;18136;42.236;-73.040;2022-08-01T08:01:03;17.40;99.90
31527;DHT22;18136;42.236;-73.040;2022-08-01T08:03:29;17.40;99.90
31527;DHT22;18136;42.236;-73.040;2022-08-01T08:05:56;17.30;99.90
31527;DHT22;18136;42.236;-73.040;2022-08-01T08:08:22;17.40;99.90
31527;DHT22;18136;42.236;-73.040;2022-08-01T08:10:49;17.40;99.90
31527;DHT22;18136;42.236;-73.040;2022-08-01T08:13:15;17.40;99.90
31527;DHT22;18136;42.236;-73.040;2022-08-01T08:15:42;17.40;99.90
31527;DHT22;18136;42.236;-73.040;2022-08-01T08:18:08;17.40;99.90
31527;DHT22;18136;42.236;-73.040;2022-08-01T08:20:35;17.50;99.90
31527;DHT22;18136;42.236;-73.040;2022-08-01T08:23:01;17.50;99.90
31527;DHT22;18136;42.236;-73.040;2022-08-01T08:25:47;17.40;99.90
31527;DHT22;18136;42.236;-73.040;2022-08-01T08:28:13;17.40;99.90
31527;DHT22;18136;42.236;-73.040;2022-08-01T08:30:39;17.40;99.90
31527;DHT22;18136;42.236;-73.040;2022-08-01T08:33:05;17.40;99.90
31527;DHT22;18136;42.236;-73.040;2022-08-01T08:35:31;17.40;99.90
31527;DHT22;18136;42.236;-73.040;2022-08-01T08:37:57;17.40;99.90
31527;DHT22;18136;42.236;-73.040;2022-08-01T08:40:29;17.40;99.90
31527;DHT22;18136;42.236;-73.040;2022-08-01T08:42:57;17.40;99.90
31527;DHT22;18136;42.236;-73.040;2022-08-01T08:45:26;17.40;99.90
31527;DHT22;18136;42.236;-73.040;2022-08-01T08:47:53;17.40;99.90
31527;DHT22;18136;42.236;-73.040;2022-08-01T08:50:20;17.40;99.90
31527;DHT22;18136;42.236;-73.040;2022-08-01T08:52:47;17.30;99.90
31527;DHT22;18136;42.236;-73.040;2022-08-01T08:55:16;17.30;99.90
31527;DHT22;18136;42.236;-73.040;2022-08-01T08:57:44;17.30;99.90
31527;DHT22;18136;42.236;-73.040;2022-08-01T09:00:11;17.40;99.90
31527;DHT22;18136;42.236;-73.040;2022-08-01T09:02:43;17.40;99.90
31527;DHT22;18136;42.236;-73.040;2022-08-01T09:05:10;17.40;99.90
31527;DHT22;18136;42.236;-73.040;2022-08-01T09:07:37;17.40;99.90
31527;DHT22;18136;42.236;-73.040;2022-08-01T09:10:06;17.40;99.90
31527;DHT22;18136;42.236;-73.040;2022-08-01T09:12:33;17.40;99.90
31527;DHT22;18136;42.236;-73.040;2022-08-01T09:14:59;17.40;99.90
31527;DHT22;18136;42.236;-73.040;2022-08-01T09:17:25;17.30;99.90
31527;DHT22;18136;42.236;-73.040;2022-08-01T09:19:53;17.40;99.90
31527;DHT22;18136;42.236;-73.040;2022-08-01T09:22:21;17.40;99.90
31527;DHT22;18136;42.236;-73.040;2022-08-01T09:25:06;17.40;99.90
31527;DHT22;18136;42.236;-73.040;2022-08-01T09:27:33;17.30;99.90
31527;DHT22;18136;42.236;-73.040;2022-08-01T09:30:14;17.30;99.90
31527;DHT22;18136;42.236;-73.040;2022-08-01T09:32:57;17.40;99.90
31527;DHT22;18136;42.236;-73.040;2022-08-01T09:35:28;17.40;99.90
31527;DHT22;18136;42.236;-73.040;2022-08-01T09:38:20;17.40;99.90
31527;DHT22;18136;42.236;-73.040;2022-08-01T09:40:58;17.40;99.90
31527;DHT22;18136;42.236;-73.040;2022-08-01T09:43:29;17.40;99.90
31527;DHT22;18136;42.236;-73.040;2022-08-01T09:45:56;17.40;99.90
31527;DHT22;18136;42.236;-73.040;2022-08-01T09:48:23;17.40;99.90
31527;DHT22;18136;42.236;-73.040;2022-08-01T09:50:51;17.40;99.90
31527;DHT22;18136;42.236;-73.040;2022-08-01T09:53:18;17.40;99.90
31527;DHT22;18136;42.236;-73.040;2022-08-01T09:55:44;17.40;99.90
31527;DHT22;18136;42.236;-73.040;2022-08-01T09:58:11;17.40;99.90
31527;DHT22;18136;42.236;-73.040;2022-08-01T10:00:38;17.40;99.90
31527;DHT22;18136;42.236;-73.040;2022-08-01T10:03:23;17.40;99.90
31527;DHT22;18136;42.236;-73.040;2022-08-01T10:05:49;17.40;99.90
31527;DHT22;18136;42.236;-73.040;2022-08-01T10:08:17;17.40;99.90
31527;DHT22;18136;42.236;-73.040;2022-08-01T10:11:08;17.40;99.90
31527;DHT22;18136;42.236;-73.040;2022-08-01T10:13:34;17.40;99.90
31527;DHT22;18136;42.236;-73.040;2022-08-01T10:16:01;17.40;99.90
31527;DHT22;18136;42.236;-73.040;2022-08-01T10:18:33;17.40;99.90
31527;DHT22;18136;42.236;-73.040;2022-08-01T10:21:01;17.40;99.90
31527;DHT22;18136;42.236;-73.040;2022-08-01T10:23:33;17.40;99.90
31527;DHT22;18136;42.236;-73.040;2022-08-01T10:26:01;17.40;99.90
31527;DHT22;18136;42.236;-73.040;2022-08-01T10:28:30;17.40;99.90
31527;DHT22;18136;42.236;-73.040;2022-08-01T10:30:57;17.40;99.90
31527;DHT22;18136;42.236;-73.040;2022-08-01T10:33:27;17.40;99.90
31527;DHT22;18136;42.236;-73.040;2022-08-01T10:35:54;17.40;99.90
31527;DHT22;18136;42.236;-73.040;2022-08-01T10:38:20;17.40;99.90
31527;DHT22;18136;42.236;-73.040;2022-08-01T10:40:49;17.40;99.90
31527;DHT22;18136;42.236;-73.040;2022-08-01T10:43:17;17.40;99.90
31527;DHT22;18136;42.236;-73.040;2022-08-01T10:45:43;17.40;99.90
31527;DHT22;18136;42.236;-73.040;2022-08-01T10:48:16;17.40;99.90
31527;DHT22;18136;42.236;-73.040;2022-08-01T10:50:49;17.40;99.90
31527;DHT22;18136;42.236;-73.040;2022-08-01T10:53:21;17.40;99.90
31527;DHT22;18136;42.236;-73.040;2022-08-01T10:58:36;17.40;99.90
31527;DHT22;18136;42.236;-73.040;2022-08-01T11:03:42;17.40;99.90
31527;DHT22;18136;42.236;-73.040;2022-08-01T11:06:17;17.50;99.90
31527;DHT22;18136;42.236;-73.040;2022-08-01T11:08:51;17.40;99.90
31527;DHT22;18136;42.236;-73.040;2022-08-01T11:11:18;17.40;99.90
31527;DHT22;18136;42.236;-73.040;2022-08-01T11:14:06;17.40;99.90
31527;DHT22;18136;42.236;-73.040;2022-08-01T11:16:39;17.40;99.90
31527;DHT22;18136;42.236;-73.040;2022-08-01T11:19:07;17.40;99.90
31527;DHT22;18136;42.236;-73.040;2022-08-01T11:27:28;17.40;99.90
31527;DHT22;18136;42.236;-73.040;2022-08-01T11:33:05;17.40;99.90
31527;DHT22;18136;42.236;-73.040;2022-08-01T11:35:32;17.40;99.90
31527;DHT22;18136;42.236;-73.040;2022-08-01T11:38:22;17.50;99.90
31527;DHT22;18136;42.236;-73.040;2022-08-01T11:49:30;17.50;99.90
31527;DHT22;18136;42.236;-73.040;2022-08-01T11:54:56;17.50;99.90
31527;DHT22;18136;42.236;-73.040;2022-08-01T11:57:28;17.50;99.90
31527;DHT22;18136;42.236;-73.040;2022-08-01T12:00:01;17.50;99.90
31527;DHT22;18136;42.236;-73.040;2022-08-01T12:02:30;17.50;99.90
31527;DHT22;18136;42.236;-73.040;2022-08-01T12:07:29;17.50;99.90
31527;DHT22;18136;42.236;-73.040;2022-08-01T12:10:16;17.50;99.90
31527;DHT22;18136;42.236;-73.040;2022-08-01T12:15:11;17.60;99.90
31527;DHT22;18136;42.236;-73.040;2022-08-01T12:17:40;17.60;99.90
31527;DHT22;18136;42.236;-73.040;2022-08-01T12:20:12;17.60;99.90
31527;DHT22;18136;42.236;-73.040;2022-08-01T12:22:38;17.60;99.90
31527;DHT22;18136;42.236;-73.040;2022-08-01T12:25:13;17.70;99.90
31527;DHT22;18136;42.236;-73.040;2022-08-01T12:27:40;17.80;99.90
31527;DHT22;18136;42.236;-73.040;2022-08-01T12:30:09;17.70;99.90
31527;DHT22;18136;42.236;-73.040;2022-08-01T12:32:38;17.70;99.90
31527;DHT22;18136;42.236;-73.040;2022-08-01T12:35:33;17.80;99.90
31527;DHT22;18136;42.236;-73.040;2022-08-01T12:38:06;17.80;99.90
31527;DHT22;18136;42.236;-73.040;2022-08-01T12:40:35;17.90;99.90
31527;DHT22;18136;42.236;-73.040;2022-08-01T12:43:07;18.00;99.90
31527;DHT22;18136;42.236;-73.040;2022-08-01T12:45:40;18.00;99.90
31527;DHT22;18136;42.236;-73.040;2022-08-01T12:48:12;18.00;99.90
31527;DHT22;18136;42.236;-73.040;2022-08-01T12:50:41;18.00;99.90
31527;DHT22;18136;42.236;-73.040;2022-08-01T12:53:08;18.10;99.90
31527;DHT22;18136;42.236;-73.040;2022-08-01T12:55:44;18.10;99.90
31527;DHT22;18136;42.236;-73.040;2022-08-01T12:58:14;18.10;99.90
31527;DHT22;18136;42.236;-73.040;2022-08-01T13:00:42;18.20;99.90
31527;DHT22;18136;42.236;-73.040;2022-08-01T13:03:27;18.30;99.90
31527;DHT22;18136;42.236;-73.040;2022-08-01T13:05:56;18.30;99.90
31527;DHT22;18136;42.236;-73.040;2022-08-01T13:11:12;18.40;99.90
31527;DHT22;18136;42.236;-73.040;2022-08-01T13:13:51;18.70;99.90
31527;DHT22;18136;42.236;-73.040;2022-08-01T13:16:23;18.70;99.90
31527;DHT22;18136;42.236;-73.040;2022-08-01T13:18:51;18.80;99.90
31527;DHT22;18136;42.236;-73.040;2022-08-01T13:21:24;18.80;99.90
31527;DHT22;18136;42.236;-73.040;2022-08-01T13:24:05;18.80;99.90
31527;DHT22;18136;42.236;-73.040;2022-08-01T13:26:50;18.80;99.90
31527;DHT22;18136;42.236;-73.040;2022-08-01T13:29:19;19.00;99.90
31527;DHT22;18136;42.236;-73.040;2022-08-01T13:31:46;19.10;99.90
31527;DHT22;18136;42.236;-73.040;2022-08-01T13:34:13;19.10;99.90
31527;DHT22;18136;42.236;-73.040;2022-08-01T13:36:40;19.20;99.90
31527;DHT22;18136;42.236;-73.040;2022-08-01T13:39:06;19.30;99.90
31527;DHT22;18136;42.236;-73.040;2022-08-01T13:41:52;19.40;99.90
31527;DHT22;18136;42.236;-73.040;2022-08-01T13:44:18;19.50;99.90
31527;DHT22;18136;42.236;-73.040;2022-08-01T13:46:45;19.50;99.90
31527;DHT22;18136;42.236;-73.040;2022-08-01T13:49:13;19.60;99.90
31527;DHT22;18136;42.236;-73.040;2022-08-01T13:51:40;19.50;99.90
31527;DHT22;18136;42.236;-73.040;2022-08-01T13:54:06;19.60;99.90
31527;DHT22;18136;42.236;-73.040;2022-08-01T13:56:33;19.60;99.90
31527;DHT22;18136;42.236;-73.040;2022-08-01T13:58:59;19.70;99.90
31527;DHT22;18136;42.236;-73.040;2022-08-01T14:01:25;19.70;99.90
31527;DHT22;18136;42.236;-73.040;2022-08-01T14:03:51;19.80;99.90
31527;DHT22;18136;42.236;-73.040;2022-08-01T14:06:19;19.90;99.90
31527;DHT22;18136;42.236;-73.040;2022-08-01T14:08:47;20.10;99.90
31527;DHT22;18136;42.236;-73.040;2022-08-01T14:11:13;20.10;99.90
31527;DHT22;18136;42.236;-73.040;2022-08-01T14:13:39;20.20;99.90
31527;DHT22;18136;42.236;-73.040;2022-08-01T14:16:06;20.40;99.90
31527;DHT22;18136;42.236;-73.040;2022-08-01T14:18:33;20.50;99.90
31527;DHT22;18136;42.236;-73.040;2022-08-01T14:20:59;20.70;99.90
31527;DHT22;18136;42.236;-73.040;2022-08-01T14:23:26;20.80;99.90
31527;DHT22;18136;42.236;-73.040;2022-08-01T14:25:52;20.80;99.90
31527;DHT22;18136;42.236;-73.040;2022-08-01T14:28:18;20.80;99.90
31527;DHT22;18136;42.236;-73.040;2022-08-01T14:30:45;21.00;99.90
31527;DHT22;18136;42.236;-73.040;2022-08-01T14:33:12;21.10;99.90
31527;DHT22;18136;42.236;-73.040;2022-08-01T14:35:39;21.30;99.90
31527;DHT22;18136;42.236;-73.040;2022-08-01T14:38:05;21.40;99.90
31527;DHT22;18136;42.236;-73.040;2022-08-01T14:40:31;21.50;99.90
31527;DHT22;18136;42.236;-73.040;2022-08-01T14:42:57;21.80;99.90
31527;DHT22;18136;42.236;-73.040;2022-08-01T14:45:23;22.00;99.90
31527;DHT22;18136;42.236;-73.040;2022-08-01T14:47:49;22.20;99.90
31527;DHT22;18136;42.236;-73.040;2022-08-01T14:50:16;22.30;99.90
31527;DHT22;18136;42.236;-73.040;2022-08-01T14:52:43;22.50;99.90
31527;DHT22;18136;42.236;-73.040;2022-08-01T14:55:10;22.60;99.90
31527;DHT22;18136;42.236;-73.040;2022-08-01T14:57:38;22.60;99.90
31527;DHT22;18136;42.236;-73.040;2022-08-01T15:00:07;22.60;99.90
31527;DHT22;18136;42.236;-73.040;2022-08-01T15:02:38;22.60;99.90
31527;DHT22;18136;42.236;-73.040;2022-08-01T15:05:05;22.70;99.90
31527;DHT22;18136;42.236;-73.040;2022-08-01T15:07:31;22.60;99.90
31527;DHT22;18136;42.236;-73.040;2022-08-01T15:09:58;22.60;99.90
31527;DHT22;18136;42.236;-73.040;2022-08-01T15:12:24;22.80;99.90
31527;DHT22;18136;42.236;-73.040;2022-08-01T15:14:50;23.00;99.90
31527;DHT22;18136;42.236;-73.040;2022-08-01T15:17:22;23.00;99.90
31527;DHT22;18136;42.236;-73.040;2022-08-01T15:19:52;23.10;99.90
31527;DHT22;18136;42.236;-73.040;2022-08-01T15:22:22;23.00;99.90
31527;DHT22;18136;42.236;-73.040;2022-08-01T15:24:50;23.00;99.90
31527;DHT22;18136;42.236;-73.040;2022-08-01T15:27:16;23.00;99.90
31527;DHT22;18136;42.236;-73.040;2022-08-01T15:29:43;22.90;99.90
31527;DHT22;18136;42.236;-73.040;2022-08-01T15:32:09;23.00;99.90
31527;DHT22;18136;42.236;-73.040;2022-08-01T15:34:37;23.10;99.90
31527;DHT22;18136;42.236;-73.040;2022-08-01T15:37:04;23.20;99.90
31527;DHT22;18136;42.236;-73.040;2022-08-01T15:39:31;23.30;99.90
31527;DHT22;18136;42.236;-73.040;2022-08-01T15:42:14;23.50;99.90
31527;DHT22;18136;42.236;-73.040;2022-08-01T15:44:41;23.80;99.90
31527;DHT22;18136;42.236;-73.040;2022-08-01T15:47:08;24.00;99.90
31527;DHT22;18136;42.236;-73.040;2022-08-01T15:49:34;24.10;99.90
31527;DHT22;18136;42.236;-73.040;2022-08-01T15:52:05;24.20;99.90
31527;DHT22;18136;42.236;-73.040;2022-08-01T15:54:32;24.20;99.90
31527;DHT22;18136;42.236;-73.040;2022-08-01T15:56:58;24.40;99.90
31527;DHT22;18136;42.236;-73.040;2022-08-01T15:59:24;24.50;99.90